sensor_id;sensor_type;location;lat;lon;timestamp;temperature;humidity
23120;DHT22;11729;50.836;4.330;2022-09-17T00:01:25;12.40;99.90
23120;DHT22;11729;50.836;4.330;2022-09-17T00:03:56;12.60;99.90
23120;DHT22;11729;50.836;4.330;2022-09-17T00:06:24;12.60;99.90
23120;DHT22;11729;50.836;4.330;2022-09-17T00:08:51;12.60;99.90
23120;DHT22;11729;50.836;4.330;2022-09-17T00:11:21;12.80;99.90
23120;DHT22;11729;50.836;4.330;2022-09-17T00:13:49;12.90;99.90
23120;DHT22;11729;50.836;4.330;2022-09-17T00:16:28;12.50;99.90
23120;DHT22;11729;50.836;4.330;2022-09-17T00:18:56;12.40;99.90
23120;DHT22;11729;50.836;4.330;2022-09-17T00:21:21;12.60;99.90
23120;DHT22;11729;50.836;4.330;2022-09-17T00:23:47;12.60;99.90
23120;DHT22;11729;50.836;4.330;2022-09-17T00:26:13;12.70;99.90
23120;DHT22;11729;50.836;4.330;2022-09-17T00:28:38;12.50;99.90
23120;DHT22;11729;50.836;4.330;2022-09-17T00:31:09;12.60;99.90
23120;DHT22;11729;50.836;4.330;2022-09-17T00:33:35;12.50;99.90
23120;DHT22;11729;50.836;4.330;2022-09-17T00:36:02;12.40;99.90
23120;DHT22;11729;50.836;4.330;2022-09-17T00:38:29;12.40;99.90
23120;DHT22;11729;50.836;4.330;2022-09-17T00:40:54;12.20;99.90
23120;DHT22;11729;50.836;4.330;2022-09-17T00:43:47;12.00;99.90
23120;DHT22;11729;50.836;4.330;2022-09-17T00:48:53;12.10;99.90
23120;DHT22;11729;50.836;4.330;2022-09-17T00:51:32;12.10;99.90
23120;DHT22;11729;50.836;4.330;2022-09-17T00:53:59;12.10;99.90
23120;DHT22;11729;50.836;4.330;2022-09-17T00:56:28;12.00;99.90
23120;DHT22;11729;50.836;4.330;2022-09-17T00:58:55;12.10;99.90
23120;DHT22;11729;50.836;4.330;2022-09-17T01:01:22;12.00;99.90
23120;DHT22;11729;50.836;4.330;2022-09-17T01:03:48;11.90;99.90
23120;DHT22;11729;50.836;4.330;2022-09-17T01:09:12;11.80;99.90
23120;DHT22;11729;50.836;4.330;2022-09-17T01:11:54;11.90;99.90
23120;DHT22;11729;50.836;4.330;2022-09-17T01:25:24;12.20;99.90
23120;DHT22;11729;50.836;4.330;2022-09-17T01:34:13;12.30;99.90
23120;DHT22;11729;50.836;4.330;2022-09-17T01:45:15;12.30;99.90
23120;DHT22;11729;50.836;4.330;2022-09-17T01:47:52;12.50;99.90
23120;DHT22;11729;50.836;4.330;2022-09-17T01:50:29;12.50;99.90
23120;DHT22;11729;50.836;4.330;2022-09-17T01:52:56;12.40;99.90
23120;DHT22;11729;50.836;4.330;2022-09-17T01:55:26;12.40;99.90
23120;DHT22;11729;50.836;4.330;2022-09-17T01:57:59;12.40;99.90
23120;DHT22;11729;50.836;4.330;2022-09-17T02:00:27;12.50;99.90
23120;DHT22;11729;50.836;4.330;2022-09-17T02:03:15;12.70;99.90
23120;DHT22;11729;50.836;4.330;2022-09-17T02:05:54;12.50;99.90
23120;DHT22;11729;50.836;4.330;2022-09-17T02:09:13;12.50;99.90
23120;DHT22;11729;50.836;4.330;2022-09-17T02:11:14;12.50;99.90
23120;DHT22;11729;50.836;4.330;2022-09-17T02:16:27;12.60;99.90
23120;DHT22;11729;50.836;4.330;2022-09-17T02:19:20;12.60;99.90
23120;DHT22;11729;50.836;4.330;2022-09-17T02:21:55;12.60;99.90
23120;DHT22;11729;50.836;4.330;2022-09-17T02:24:26;12.70;99.90
23120;DHT22;11729;50.836;4.330;2022-09-17T02:29:37;12.70;99.90
23120;DHT22;11729;50.836;4.330;2022-09-17T02:32:04;12.60;99.90
23120;DHT22;11729;50.836;4.330;2022-09-17T02:34:30;12.50;99.90
23120;DHT22;11729;50.836;4.330;2022-09-17T02:36:56;12.40;99.90
23120;DHT22;11729;50.836;4.330;2022-09-17T02:39:26;12.50;99.90
23120;DHT22;11729;50.836;4.330;2022-09-17T02:42:08;12.60;99.90
23120;DHT22;11729;50.836;4.330;2022-09-17T02:50:01;12.70;99.90
23120;DHT22;11729;50.836;4.330;2022-09-17T02:55:18;12.80;99.90
23120;DHT22;11729;50.836;4.330;2022-09-17T03:00:30;12.50;99.90
23120;DHT22;11729;50.836;4.330;2022-09-17T03:03:22;12.40;99.90
23120;DHT22;11729;50.836;4.330;2022-09-17T03:05:54;12.50;99.90
23120;DHT22;11729;50.836;4.330;2022-09-17T03:08:33;12.50;99.90
23120;DHT22;11729;50.836;4.330;2022-09-17T03:11:01;12.60;99.90
23120;DHT22;11729;50.836;4.330;2022-09-17T03:13:29;12.50;99.90
23120;DHT22;11729;50.836;4.330;2022-09-17T03:15:55;12.40;99.90
23120;DHT22;11729;50.836;4.330;2022-09-17T03:18:21;12.20;99.90
23120;DHT22;11729;50.836;4.330;2022-09-17T03:20:46;12.20;99.90
23120;DHT22;11729;50.836;4.330;2022-09-17T03:23:12;12.00;99.90
23120;DHT22;11729;50.836;4.330;2022-09-17T03:25:37;11.90;99.90
23120;DHT22;11729;50.836;4.330;2022-09-17T03:28:03;11.90;99.90
23120;DHT22;11729;50.836;4.330;2022-09-17T03:30:29;11.90;99.90
23120;DHT22;11729;50.836;4.330;2022-09-17T03:32:54;11.90;99.90
23120;DHT22;11729;50.836;4.330;2022-09-17T03:35:20;11.90;99.90
23120;DHT22;11729;50.836;4.330;2022-09-17T03:37:46;12.00;99.90
23120;DHT22;11729;50.836;4.330;2022-09-17T03:40:12;11.90;99.90
23120;DHT22;11729;50.836;4.330;2022-09-17T03:42:38;11.90;99.90
23120;DHT22;11729;50.836;4.330;2022-09-17T03:45:04;11.70;99.90
23120;DHT22;11729;50.836;4.330;2022-09-17T03:47:29;11.80;99.90
23120;DHT22;11729;50.836;4.330;2022-09-17T03:49:55;11.80;99.90
23120;DHT22;11729;50.836;4.330;2022-09-17T03:52:21;11.70;99.90
23120;DHT22;11729;50.836;4.330;2022-09-17T03:54:46;11.60;99.90
23120;DHT22;11729;50.836;4.330;2022-09-17T03:57:12;11.60;99.90
23120;DHT22;11729;50.836;4.330;2022-09-17T03:59:38;11.60;99.90
23120;DHT22;11729;50.836;4.330;2022-09-17T04:02:04;11.50;99.90
23120;DHT22;11729;50.836;4.330;2022-09-17T04:04:30;11.50;99.90
23120;DHT22;11729;50.836;4.330;2022-09-17T04:06:55;11.60;99.90
23120;DHT22;11729;50.836;4.330;2022-09-17T04:09:21;11.60;99.90
23120;DHT22;11729;50.836;4.330;2022-09-17T04:11:46;11.70;99.90
23120;DHT22;11729;50.836;4.330;2022-09-17T04:14:12;11.80;99.90
23120;DHT22;11729;50.836;4.330;2022-09-17T04:16:38;11.80;99.90
23120;DHT22;11729;50.836;4.330;2022-09-17T04:19:03;11.90;99.90
23120;DHT22;11729;50.836;4.330;2022-09-17T04:21:29;11.80;99.90
23120;DHT22;11729;50.836;4.330;2022-09-17T04:23:55;11.70;99.90
23120;DHT22;11729;50.836;4.330;2022-09-17T04:26:20;11.80;99.90
23120;DHT22;11729;50.836;4.330;2022-09-17T04:28:46;11.70;99.90
23120;DHT22;11729;50.836;4.330;2022-09-17T04:31:12;11.60;99.90
23120;DHT22;11729;50.836;4.330;2022-09-17T04:33:37;11.60;99.90
23120;DHT22;11729;50.836;4.330;2022-09-17T04:36:03;11.60;99.90
23120;DHT22;11729;50.836;4.330;2022-09-17T04:38:29;11.60;99.90
23120;DHT22;11729;50.836;4.330;2022-09-17T04:40:54;11.60;99.90
23120;DHT22;11729;50.836;4.330;2022-09-17T04:43:22;11.60;99.90
23120;DHT22;11729;50.836;4.330;2022-09-17T04:45:48;11.60;99.90
23120;DHT22;11729;50.836;4.330;2022-09-17T04:48:15;11.60;99.90
23120;DHT22;11729;50.836;4.330;2022-09-17T04:50:41;11.60;99.90
23120;DHT22;11729;50.836;4.330;2022-09-17T04:53:06;11.60;99.90
23120;DHT22;11729;50.836;4.330;2022-09-17T04:55:32;11.50;99.90
23120;DHT22;11729;50.836;4.330;2022-09-17T04:57:58;11.60;99.90
23120;DHT22;11729;50.836;4.330;2022-09-17T05:00:24;11.60;99.90
23120;DHT22;11729;50.836;4.330;2022-09-17T05:02:52;11.60;99.90
23120;DHT22;11729;50.836;4.330;2022-09-17T05:05:20;11.70;99.90
23120;DHT22;11729;50.836;4.330;2022-09-17T05:07:46;11.70;99.90
23120;DHT22;11729;50.836;4.330;2022-09-17T05:10:13;11.70;99.90
23120;DHT22;11729;50.836;4.330;2022-09-17T05:12:39;11.70;99.90
23120;DHT22;11729;50.836;4.330;2022-09-17T05:15:05;11.90;99.90
23120;DHT22;11729;50.836;4.330;2022-09-17T05:17:32;11.90;99.90
23120;DHT22;11729;50.836;4.330;2022-09-17T05:19:58;11.90;99.90
23120;DHT22;11729;50.836;4.330;2022-09-17T05:22:24;11.80;99.90
23120;DHT22;11729;50.836;4.330;2022-09-17T05:24:49;11.70;99.90
23120;DHT22;11729;50.836;4.330;2022-09-17T05:27:15;11.70;99.90
23120;DHT22;11729;50.836;4.330;2022-09-17T05:29:40;11.60;99.90
23120;DHT22;11729;50.836;4.330;2022-09-17T05:32:06;11.60;99.90
23120;DHT22;11729;50.836;4.330;2022-09-17T05:34:32;11.70;99.90
23120;DHT22;11729;50.836;4.330;2022-09-17T05:36:57;11.70;99.90
23120;DHT22;11729;50.836;4.330;2022-09-17T05:39:23;11.70;99.90
23120;DHT22;11729;50.836;4.330;2022-09-17T05:41:52;11.70;99.90
23120;DHT22;11729;50.836;4.330;2022-09-17T05:44:17;11.60;99.90
23120;DHT22;11729;50.836;4.330;2022-09-17T05:46:44;11.60;99.90
23120;DHT22;11729;50.836;4.330;2022-09-17T05:49:10;11.80;99.90
23120;DHT22;11729;50.836;4.330;2022-09-17T05:51:35;11.90;99.90
23120;DHT22;11729;50.836;4.330;2022-09-17T05:54:01;11.90;99.90
23120;DHT22;11729;50.836;4.330;2022-09-17T05:56:27;12.00;99.90
23120;DHT22;11729;50.836;4.330;2022-09-17T05:58:56;12.20;99.90
23120;DHT22;11729;50.836;4.330;2022-09-17T06:01:22;12.30;99.90
23120;DHT22;11729;50.836;4.330;2022-09-17T06:03:48;12.30;99.90
23120;DHT22;11729;50.836;4.330;2022-09-17T06:06:13;12.20;99.90
23120;DHT22;11729;50.836;4.330;2022-09-17T06:08:39;12.10;99.90
23120;DHT22;11729;50.836;4.330;2022-09-17T06:11:06;12.20;99.90
23120;DHT22;11729;50.836;4.330;2022-09-17T06:13:33;12.30;99.90
23120;DHT22;11729;50.836;4.330;2022-09-17T06:15:59;12.40;99.90
23120;DHT22;11729;50.836;4.330;2022-09-17T06:18:26;12.50;99.90
23120;DHT22;11729;50.836;4.330;2022-09-17T06:21:00;12.60;99.90
23120;DHT22;11729;50.836;4.330;2022-09-17T06:23:27;12.70;99.90
23120;DHT22;11729;50.836;4.330;2022-09-17T06:25:57;12.80;99.90
23120;DHT22;11729;50.836;4.330;2022-09-17T06:28:24;12.80;99.90
23120;DHT22;11729;50.836;4.330;2022-09-17T06:30:51;12.80;99.90
23120;DHT22;11729;50.836;4.330;2022-09-17T06:33:19;12.80;99.90
23120;DHT22;11729;50.836;4.330;2022-09-17T06:35:44;12.60;99.90
23120;DHT22;11729;50.836;4.330;2022-09-17T06:38:10;12.70;99.90
23120;DHT22;11729;50.836;4.330;2022-09-17T06:40:36;12.70;99.90
23120;DHT22;11729;50.836;4.330;2022-09-17T06:43:02;12.90;99.90
23120;DHT22;11729;50.836;4.330;2022-09-17T06:45:28;12.80;99.90
23120;DHT22;11729;50.836;4.330;2022-09-17T06:47:54;13.00;99.90
23120;DHT22;11729;50.836;4.330;2022-09-17T06:50:20;13.10;99.90
23120;DHT22;11729;50.836;4.330;2022-09-17T06:52:50;12.90;99.90
23120;DHT22;11729;50.836;4.330;2022-09-17T06:55:16;13.00;99.90
23120;DHT22;11729;50.836;4.330;2022-09-17T06:57:42;13.10;99.90
23120;DHT22;11729;50.836;4.330;2022-09-17T07:00:08;13.10;99.90
23120;DHT22;11729;50.836;4.330;2022-09-17T07:02:35;13.10;99.90
23120;DHT22;11729;50.836;4.330;2022-09-17T07:05:01;13.00;99.90
23120;DHT22;11729;50.836;4.330;2022-09-17T07:07:27;13.30;99.90
23120;DHT22;11729;50.836;4.330;2022-09-17T07:09:53;14.00;99.90
23120;DHT22;11729;50.836;4.330;2022-09-17T07:12:19;14.40;99.90
23120;DHT22;11729;50.836;4.330;2022-09-17T07:14:45;14.50;99.90
23120;DHT22;11729;50.836;4.330;2022-09-17T07:17:12;14.60;99.90
23120;DHT22;11729;50.836;4.330;2022-09-17T07:19:38;14.40;99.90
23120;DHT22;11729;50.836;4.330;2022-09-17T07:22:03;14.00;99.90
23120;DHT22;11729;50.836;4.330;2022-09-17T07:24:29;14.10;99.90
23120;DHT22;11729;50.836;4.330;2022-09-17T07:26:55;14.30;99.90
23120;DHT22;11729;50.836;4.330;2022-09-17T07:29:20;14.60;99.90
23120;DHT22;11729;50.836;4.330;2022-09-17T07:31:48;14.60;99.90
23120;DHT22;11729;50.836;4.330;2022-09-17T07:34:13;14.30;99.90
23120;DHT22;11729;50.836;4.330;2022-09-17T07:36:39;14.00;99.90
23120;DHT22;11729;50.836;4.330;2022-09-17T07:39:05;14.00;99.90
23120;DHT22;11729;50.836;4.330;2022-09-17T07:41:31;14.00;99.90
23120;DHT22;11729;50.836;4.330;2022-09-17T07:43:56;14.20;99.90
23120;DHT22;11729;50.836;4.330;2022-09-17T07:46:22;14.30;99.90
23120;DHT22;11729;50.836;4.330;2022-09-17T07:48:48;14.40;99.90
23120;DHT22;11729;50.836;4.330;2022-09-17T07:51:19;14.50;99.90
23120;DHT22;11729;50.836;4.330;2022-09-17T07:53:46;14.60;99.90
23120;DHT22;11729;50.836;4.330;2022-09-17T07:56:12;14.90;99.90
23120;DHT22;11729;50.836;4.330;2022-09-17T07:58:37;15.20;99.90
23120;DHT22;11729;50.836;4.330;2022-09-17T08:01:05;15.40;99.90
23120;DHT22;11729;50.836;4.330;2022-09-17T08:03:34;15.40;99.90
23120;DHT22;11729;50.836;4.330;2022-09-17T08:06:12;15.90;99.90
23120;DHT22;11729;50.836;4.330;2022-09-17T08:08:38;16.70;99.90
23120;DHT22;11729;50.836;4.330;2022-09-17T08:11:06;17.00;99.90
23120;DHT22;11729;50.836;4.330;2022-09-17T08:13:32;17.30;99.90
23120;DHT22;11729;50.836;4.330;2022-09-17T08:15:59;17.20;99.90
23120;DHT22;11729;50.836;4.330;2022-09-17T08:18:26;17.00;99.90
23120;DHT22;11729;50.836;4.330;2022-09-17T08:20:55;16.80;99.90
23120;DHT22;11729;50.836;4.330;2022-09-17T08:23:21;16.80;99.90
23120;DHT22;11729;50.836;4.330;2022-09-17T08:25:58;17.10;99.90
23120;DHT22;11729;50.836;4.330;2022-09-17T08:28:25;18.00;99.90
23120;DHT22;11729;50.836;4.330;2022-09-17T08:30:52;18.10;99.90
23120;DHT22;11729;50.836;4.330;2022-09-17T08:33:18;18.60;99.90
23120;DHT22;11729;50.836;4.330;2022-09-17T08:35:54;19.40;99.90
23120;DHT22;11729;50.836;4.330;2022-09-17T08:38:24;20.30;99.90
23120;DHT22;11729;50.836;4.330;2022-09-17T08:46:24;22.70;99.90
23120;DHT22;11729;50.836;4.330;2022-09-17T09:00:19;19.30;99.90
23120;DHT22;11729;50.836;4.330;2022-09-17T09:03:15;18.90;99.90
23120;DHT22;11729;50.836;4.330;2022-09-17T09:05:47;18.70;99.90
23120;DHT22;11729;50.836;4.330;2022-09-17T09:08:55;18.50;99.90
23120;DHT22;11729;50.836;4.330;2022-09-17T09:11:26;18.40;99.90
23120;DHT22;11729;50.836;4.330;2022-09-17T09:14:05;18.30;99.90
23120;DHT22;11729;50.836;4.330;2022-09-17T09:16:37;18.60;99.90
23120;DHT22;11729;50.836;4.330;2022-09-17T09:19:25;19.00;99.90
23120;DHT22;11729;50.836;4.330;2022-09-17T09:22:10;18.80;99.90
23120;DHT22;11729;50.836;4.330;2022-09-17T09:24:42;18.60;99.90
23120;DHT22;11729;50.836;4.330;2022-09-17T09:27:20;18.40;99.90
23120;DHT22;11729;50.836;4.330;2022-09-17T09:32:59;16.90;99.90
23120;DHT22;11729;50.836;4.330;2022-09-17T09:35:31;16.60;99.90
23120;DHT22;11729;50.836;4.330;2022-09-17T09:38:28;16.10;99.90
23120;DHT22;11729;50.836;4.330;2022-09-17T09:44:02;15.70;99.90
23120;DHT22;11729;50.836;4.330;2022-09-17T09:59:18;16.60;99.90
23120;DHT22;11729;50.836;4.330;2022-09-17T10:01:44;17.20;99.90
23120;DHT22;11729;50.836;4.330;2022-09-17T10:04:23;17.70;99.90
23120;DHT22;11729;50.836;4.330;2022-09-17T10:06:52;17.90;99.90
23120;DHT22;11729;50.836;4.330;2022-09-17T10:09:19;18.00;99.90
23120;DHT22;11729;50.836;4.330;2022-09-17T10:12:16;18.40;99.90
23120;DHT22;11729;50.836;4.330;2022-09-17T10:14:43;18.60;99.90
23120;DHT22;11729;50.836;4.330;2022-09-17T10:22:45;18.60;99.90
23120;DHT22;11729;50.836;4.330;2022-09-17T10:25:29;18.30;99.90
23120;DHT22;11729;50.836;4.330;2022-09-17T10:27:56;18.10;99.90
23120;DHT22;11729;50.836;4.330;2022-09-17T10:30:23;17.90;99.90
23120;DHT22;11729;50.836;4.330;2022-09-17T10:33:16;17.70;99.90
23120;DHT22;11729;50.836;4.330;2022-09-17T10:35:56;17.70;99.90
23120;DHT22;11729;50.836;4.330;2022-09-17T10:38:27;17.40;99.90
23120;DHT22;11729;50.836;4.330;2022-09-17T10:41:17;17.20;99.90
23120;DHT22;11729;50.836;4.330;2022-09-17T10:43:44;17.10;99.90
23120;DHT22;11729;50.836;4.330;2022-09-17T10:46:29;17.00;99.90
23120;DHT22;11729;50.836;4.330;2022-09-17T10:49:57;17.10;99.90
23120;DHT22;11729;50.836;4.330;2022-09-17T10:52:25;17.30;99.90
23120;DHT22;11729;50.836;4.330;2022-09-17T10:57:44;17.30;99.90
23120;DHT22;11729;50.836;4.330;2022-09-17T11:00:17;17.00;99.90
23120;DHT22;11729;50.836;4.330;2022-09-17T11:17:45;17.60;99.90
23120;DHT22;11729;50.836;4.330;2022-09-17T11:34:07;17.10;99.90
23120;DHT22;11729;50.836;4.330;2022-09-17T11:36:54;16.70;99.90
23120;DHT22;11729;50.836;4.330;2022-09-17T11:39:35;16.70;99.90
23120;DHT22;11729;50.836;4.330;2022-09-17T11:42:11;16.70;99.90
23120;DHT22;11729;50.836;4.330;2022-09-17T11:44:47;16.50;99.90
23120;DHT22;11729;50.836;4.330;2022-09-17T11:50:02;16.50;99.90
23120;DHT22;11729;50.836;4.330;2022-09-17T11:52:30;17.00;99.90
23120;DHT22;11729;50.836;4.330;2022-09-17T11:55:22;17.10;99.90
23120;DHT22;11729;50.836;4.330;2022-09-17T11:57:51;17.00;99.90
23120;DHT22;11729;50.836;4.330;2022-09-17T12:00:22;17.00;99.90
23120;DHT22;11729;50.836;4.330;2022-09-17T12:03:06;17.10;99.90
23120;DHT22;11729;50.836;4.330;2022-09-17T12:05:42;17.00;99.90
23120;DHT22;11729;50.836;4.330;2022-09-17T12:13:51;19.20;99.90
23120;DHT22;11729;50.836;4.330;2022-09-17T12:16:35;19.80;99.90
23120;DHT22;11729;50.836;4.330;2022-09-17T12:19:38;19.60;99.90
23120;DHT22;11729;50.836;4.330;2022-09-17T12:22:16;19.70;99.90
23120;DHT22;11729;50.836;4.330;2022-09-17T12:24:44;19.60;99.90
23120;DHT22;11729;50.836;4.330;2022-09-17T12:35:50;21.10;99.90
23120;DHT22;11729;50.836;4.330;2022-09-17T12:41:19;20.40;99.90
23120;DHT22;11729;50.836;4.330;2022-09-17T12:43:58;19.80;99.90
23120;DHT22;11729;50.836;4.330;2022-09-17T12:51:58;18.90;99.90
23120;DHT22;11729;50.836;4.330;2022-09-17T13:00:07;18.80;99.90
23120;DHT22;11729;50.836;4.330;2022-09-17T13:03:01;18.00;99.90
23120;DHT22;11729;50.836;4.330;2022-09-17T13:13:59;14.60;99.90
23120;DHT22;11729;50.836;4.330;2022-09-17T13:16:42;14.20;99.90
23120;DHT22;11729;50.836;4.330;2022-09-17T13:22:18;14.10;99.90
23120;DHT22;11729;50.836;4.330;2022-09-17T13:24:45;14.10;99.90
23120;DHT22;11729;50.836;4.330;2022-09-17T13:27:32;14.30;99.90
23120;DHT22;11729;50.836;4.330;2022-09-17T13:30:00;15.00;99.90
23120;DHT22;11729;50.836;4.330;2022-09-17T13:40:23;14.70;99.90
23120;DHT22;11729;50.836;4.330;2022-09-17T13:42:58;15.50;99.90
23120;DHT22;11729;50.836;4.330;2022-09-17T13:45:33;16.60;99.90
23120;DHT22;11729;50.836;4.330;2022-09-17T13:48:21;17.50;99.90
23120;DHT22;11729;50.836;4.330;2022-09-17T13:50:48;18.00;99.90
23120;DHT22;11729;50.836;4.330;2022-09-17T13:55:52;18.80;99.90
23120;DHT22;11729;50.836;4.330;2022-09-17T14:11:37;18.60;99.90
23120;DHT22;11729;50.836;4.330;2022-09-17T14:19:42;18.10;99.90
23120;DHT22;11729;50.836;4.330;2022-09-17T14:22:16;18.10;99.90
23120;DHT22;11729;50.836;4.330;2022-09-17T14:24:47;17.90;99.90
23120;DHT22;11729;50.836;4.330;2022-09-17T14:30:25;17.60;99.90
23120;DHT22;11729;50.836;4.330;2022-09-17T14:33:04;17.00;99.90
23120;DHT22;11729;50.836;4.330;2022-09-17T14:35:35;16.40;99.90
23120;DHT22;11729;50.836;4.330;2022-09-17T14:38:22;15.60;99.90
23120;DHT22;11729;50.836;4.330;2022-09-17T14:41:00;15.20;99.90
23120;DHT22;11729;50.836;4.330;2022-09-17T14:43:49;14.60;99.90
23120;DHT22;11729;50.836;4.330;2022-09-17T14:47:01;14.40;99.90
23120;DHT22;11729;50.836;4.330;2022-09-17T14:49:32;14.30;99.90
23120;DHT22;11729;50.836;4.330;2022-09-17T14:51:58;14.20;99.90
23120;DHT22;11729;50.836;4.330;2022-09-17T14:54:30;14.20;99.90
23120;DHT22;11729;50.836;4.330;2022-09-17T14:59:46;14.30;99.90
23120;DHT22;11729;50.836;4.330;2022-09-17T15:02:35;14.50;99.90
23120;DHT22;11729;50.836;4.330;2022-09-17T15:05:01;14.50;99.90
23120;DHT22;11729;50.836;4.330;2022-09-17T15:07:28;14.60;99.90
23120;DHT22;11729;50.836;4.330;2022-09-17T15:10:05;14.80;99.90
23120;DHT22;11729;50.836;4.330;2022-09-17T15:12:31;14.90;99.90
23120;DHT22;11729;50.836;4.330;2022-09-17T15:14:57;15.10;99.90
23120;DHT22;11729;50.836;4.330;2022-09-17T15:17:23;15.40;99.90
23120;DHT22;11729;50.836;4.330;2022-09-17T15:19:51;15.50;99.90
23120;DHT22;11729;50.836;4.330;2022-09-17T15:22:30;15.40;99.90
23120;DHT22;11729;50.836;4.330;2022-09-17T15:25:03;15.30;99.90
23120;DHT22;11729;50.836;4.330;2022-09-17T15:27:34;15.20;99.90
23120;DHT22;11729;50.836;4.330;2022-09-17T15:32:37;15.00;99.90
23120;DHT22;11729;50.836;4.330;2022-09-17T15:35:30;15.10;99.90
23120;DHT22;11729;50.836;4.330;2022-09-17T15:38:25;15.10;99.90
23120;DHT22;11729;50.836;4.330;2022-09-17T15:40:51;15.20;99.90
23120;DHT22;11729;50.836;4.330;2022-09-17T15:43:31;15.30;99.90
23120;DHT22;11729;50.836;4.330;2022-09-17T15:46:27;15.30;99.90
23120;DHT22;11729;50.836;4.330;2022-09-17T15:49:00;15.20;99.90
23120;DHT22;11729;50.836;4.330;2022-09-17T15:51:27;15.00;99.90
23120;DHT22;11729;50.836;4.330;2022-09-17T15:54:04;15.00;99.90
23120;DHT22;11729;50.836;4.330;2022-09-17T15:56:35;14.90;99.90
23120;DHT22;11729;50.836;4.330;2022-09-17T15:59:25;15.00;99.90
23120;DHT22;11729;50.836;4.330;2022-09-17T16:01:51;14.90;99.90
23120;DHT22;11729;50.836;4.330;2022-09-17T16:04:28;15.00;99.90
23120;DHT22;11729;50.836;4.330;2022-09-17T16:06:59;15.10;99.90
23120;DHT22;11729;50.836;4.330;2022-09-17T16:09:49;15.20;99.90
23120;DHT22;11729;50.836;4.330;2022-09-17T16:12:23;15.30;99.90
23120;DHT22;11729;50.836;4.330;2022-09-17T16:14:51;15.10;99.90
23120;DHT22;11729;50.836;4.330;2022-09-17T16:19:54;14.90;99.90
23120;DHT22;11729;50.836;4.330;2022-09-17T16:22:21;14.90;99.90
23120;DHT22;11729;50.836;4.330;2022-09-17T16:24:47;15.00;99.90
23120;DHT22;11729;50.836;4.330;2022-09-17T16:27:25;15.10;99.90
23120;DHT22;11729;50.836;4.330;2022-09-17T16:30:04;15.00;99.90
23120;DHT22;11729;50.836;4.330;2022-09-17T16:32:30;15.00;99.90
23120;DHT22;11729;50.836;4.330;2022-09-17T16:34:56;15.20;99.90
23120;DHT22;11729;50.836;4.330;2022-09-17T16:37:22;15.10;99.90
23120;DHT22;11729;50.836;4.330;2022-09-17T16:39:50;15.10;99.90
23120;DHT22;11729;50.836;4.330;2022-09-17T16:42:15;15.00;99.90
23120;DHT22;11729;50.836;4.330;2022-09-17T16:44:41;15.10;99.90
23120;DHT22;11729;50.836;4.330;2022-09-17T16:47:07;15.10;99.90
23120;DHT22;11729;50.836;4.330;2022-09-17T16:49:36;15.10;99.90
23120;DHT22;11729;50.836;4.330;2022-09-17T16:52:01;15.20;99.90
23120;DHT22;11729;50.836;4.330;2022-09-17T16:54:27;15.20;99.90
23120;DHT22;11729;50.836;4.330;2022-09-17T16:56:52;15.00;99.90
23120;DHT22;11729;50.836;4.330;2022-09-17T16:59:18;14.80;99.90
23120;DHT22;11729;50.836;4.330;2022-09-17T17:01:43;14.70;99.90
23120;DHT22;11729;50.836;4.330;2022-09-17T17:04:09;14.80;99.90
23120;DHT22;11729;50.836;4.330;2022-09-17T17:06:35;14.80;99.90
23120;DHT22;11729;50.836;4.330;2022-09-17T17:09:00;14.70;99.90
23120;DHT22;11729;50.836;4.330;2022-09-17T17:11:26;14.80;99.90
23120;DHT22;11729;50.836;4.330;2022-09-17T17:13:53;14.70;99.90
23120;DHT22;11729;50.836;4.330;2022-09-17T17:16:20;14.60;99.90
23120;DHT22;11729;50.836;4.330;2022-09-17T17:18:48;14.70;99.90
23120;DHT22;11729;50.836;4.330;2022-09-17T17:21:15;14.60;99.90
23120;DHT22;11729;50.836;4.330;2022-09-17T17:23:41;14.60;99.90
23120;DHT22;11729;50.836;4.330;2022-09-17T17:26:08;14.50;99.90
23120;DHT22;11729;50.836;4.330;2022-09-17T17:28:36;14.40;99.90
23120;DHT22;11729;50.836;4.330;2022-09-17T17:31:03;14.20;99.90
23120;DHT22;11729;50.836;4.330;2022-09-17T17:33:29;14.00;99.90
23120;DHT22;11729;50.836;4.330;2022-09-17T17:35:54;14.00;99.90
23120;DHT22;11729;50.836;4.330;2022-09-17T17:38:23;13.90;99.90
23120;DHT22;11729;50.836;4.330;2022-09-17T17:40:49;14.00;99.90
23120;DHT22;11729;50.836;4.330;2022-09-17T17:43:14;14.10;99.90
23120;DHT22;11729;50.836;4.330;2022-09-17T17:45:43;14.20;99.90
23120;DHT22;11729;50.836;4.330;2022-09-17T17:48:10;14.30;99.90
23120;DHT22;11729;50.836;4.330;2022-09-17T17:50:35;14.30;99.90
23120;DHT22;11729;50.836;4.330;2022-09-17T17:53:01;14.20;99.90
23120;DHT22;11729;50.836;4.330;2022-09-17T17:55:26;14.10;99.90
23120;DHT22;11729;50.836;4.330;2022-09-17T17:57:55;14.00;99.90
23120;DHT22;11729;50.836;4.330;2022-09-17T18:00:22;14.00;99.90
23120;DHT22;11729;50.836;4.330;2022-09-17T18:02:49;14.20;99.90
23120;DHT22;11729;50.836;4.330;2022-09-17T18:05:15;14.20;99.90
23120;DHT22;11729;50.836;4.330;2022-09-17T18:07:40;14.20;99.90
23120;DHT22;11729;50.836;4.330;2022-09-17T18:10:07;14.00;99.90
23120;DHT22;11729;50.836;4.330;2022-09-17T18:12:32;13.80;99.90
23120;DHT22;11729;50.836;4.330;2022-09-17T18:14:58;13.90;99.90
23120;DHT22;11729;50.836;4.330;2022-09-17T18:17:23;13.70;99.90
23120;DHT22;11729;50.836;4.330;2022-09-17T18:19:49;13.90;99.90
23120;DHT22;11729;50.836;4.330;2022-09-17T18:22:16;13.90;99.90
23120;DHT22;11729;50.836;4.330;2022-09-17T18:24:42;13.80;99.90
23120;DHT22;11729;50.836;4.330;2022-09-17T18:27:08;13.70;99.90
23120;DHT22;11729;50.836;4.330;2022-09-17T18:29:34;13.70;99.90
23120;DHT22;11729;50.836;4.330;2022-09-17T18:31:59;13.70;99.90
23120;DHT22;11729;50.836;4.330;2022-09-17T18:34:25;13.70;99.90
23120;DHT22;11729;50.836;4.330;2022-09-17T18:36:51;13.60;99.90
23120;DHT22;11729;50.836;4.330;2022-09-17T18:39:16;13.60;99.90
23120;DHT22;11729;50.836;4.330;2022-09-17T18:41:42;13.60;99.90
23120;DHT22;11729;50.836;4.330;2022-09-17T18:44:09;13.90;99.90
23120;DHT22;11729;50.836;4.330;2022-09-17T18:46:35;14.00;99.90
23120;DHT22;11729;50.836;4.330;2022-09-17T18:49:02;13.90;99.90
23120;DHT22;11729;50.836;4.330;2022-09-17T18:51:29;13.90;99.90
23120;DHT22;11729;50.836;4.330;2022-09-17T18:53:55;13.80;99.90
23120;DHT22;11729;50.836;4.330;2022-09-17T18:56:24;13.80;99.90
23120;DHT22;11729;50.836;4.330;2022-09-17T18:58:52;13.80;99.90
23120;DHT22;11729;50.836;4.330;2022-09-17T19:01:20;13.60;99.90
23120;DHT22;11729;50.836;4.330;2022-09-17T19:03:46;13.60;99.90
23120;DHT22;11729;50.836;4.330;2022-09-17T19:06:13;13.60;99.90
23120;DHT22;11729;50.836;4.330;2022-09-17T19:08:43;13.70;99.90
23120;DHT22;11729;50.836;4.330;2022-09-17T19:11:09;13.80;99.90
23120;DHT22;11729;50.836;4.330;2022-09-17T19:13:39;13.90;99.90